sensor_id;sensor_type;location;lat;lon;timestamp;P1;durP1;ratioP1;P2;durP2;ratioP2
8100;SDS011;4093;53.470;9.832;2022-12-07T00:01:03;38.97;;;21.67;;
8100;SDS011;4093;53.470;9.832;2022-12-07T00:03:32;41.07;;;22.73;;
8100;SDS011;4093;53.470;9.832;2022-12-07T00:06:01;38.30;;;23.30;;
8100;SDS011;4093;53.470;9.832;2022-12-07T00:08:29;37.20;;;22.97;;
8100;SDS011;4093;53.470;9.832;2022-12-07T00:11:00;35.47;;;20.97;;
8100;SDS011;4093;53.470;9.832;2022-12-07T00:13:29;38.10;;;22.03;;
8100;SDS011;4093;53.470;9.832;2022-12-07T00:15:59;39.47;;;22.27;;
8100;SDS011;4093;53.470;9.832;2022-12-07T00:18:29;32.57;;;20.13;;
8100;SDS011;4093;53.470;9.832;2022-12-07T00:21:00;31.80;;;20.60;;
8100;SDS011;4093;53.470;9.832;2022-12-07T00:23:28;35.07;;;19.23;;
8100;SDS011;4093;53.470;9.832;2022-12-07T00:26:02;31.27;;;18.97;;
8100;SDS011;4093;53.470;9.832;2022-12-07T00:28:32;30.97;;;18.97;;
8100;SDS011;4093;53.470;9.832;2022-12-07T00:31:02;31.07;;;19.20;;
8100;SDS011;4093;53.470;9.832;2022-12-07T00:33:31;28.67;;;17.40;;
8100;SDS011;4093;53.470;9.832;2022-12-07T00:36:00;30.63;;;17.90;;
8100;SDS011;4093;53.470;9.832;2022-12-07T00:38:29;29.40;;;17.23;;
8100;SDS011;4093;53.470;9.832;2022-12-07T00:41:00;26.03;;;16.60;;
8100;SDS011;4093;53.470;9.832;2022-12-07T00:43:29;28.90;;;16.93;;
8100;SDS011;4093;53.470;9.832;2022-12-07T00:45:59;29.73;;;16.63;;
8100;SDS011;4093;53.470;9.832;2022-12-07T00:48:27;26.67;;;16.63;;
8100;SDS011;4093;53.470;9.832;2022-12-07T00:50:55;31.07;;;15.90;;
8100;SDS011;4093;53.470;9.832;2022-12-07T00:53:23;28.60;;;16.67;;
8100;SDS011;4093;53.470;9.832;2022-12-07T00:55:51;30.30;;;15.73;;
8100;SDS011;4093;53.470;9.832;2022-12-07T00:58:19;25.73;;;15.17;;
8100;SDS011;4093;53.470;9.832;2022-12-07T01:00:47;31.97;;;15.23;;
8100;SDS011;4093;53.470;9.832;2022-12-07T01:03:16;29.80;;;16.33;;
8100;SDS011;4093;53.470;9.832;2022-12-07T01:05:51;25.37;;;14.23;;
8100;SDS011;4093;53.470;9.832;2022-12-07T01:08:21;27.67;;;16.00;;
8100;SDS011;4093;53.470;9.832;2022-12-07T01:10:56;26.70;;;15.70;;
8100;SDS011;4093;53.470;9.832;2022-12-07T01:13:25;26.17;;;14.83;;
8100;SDS011;4093;53.470;9.832;2022-12-07T01:15:56;26.60;;;14.93;;
8100;SDS011;4093;53.470;9.832;2022-12-07T01:18:27;25.60;;;15.70;;
8100;SDS011;4093;53.470;9.832;2022-12-07T01:20:57;29.83;;;15.60;;
8100;SDS011;4093;53.470;9.832;2022-12-07T01:23:25;33.17;;;15.50;;
8100;SDS011;4093;53.470;9.832;2022-12-07T01:25:54;28.07;;;14.77;;
8100;SDS011;4093;53.470;9.832;2022-12-07T01:28:23;30.13;;;16.20;;
8100;SDS011;4093;53.470;9.832;2022-12-07T01:31:00;26.27;;;15.87;;
8100;SDS011;4093;53.470;9.832;2022-12-07T01:33:31;31.43;;;15.60;;
8100;SDS011;4093;53.470;9.832;2022-12-07T01:36:01;27.93;;;15.27;;
8100;SDS011;4093;53.470;9.832;2022-12-07T01:38:30;23.43;;;13.90;;
8100;SDS011;4093;53.470;9.832;2022-12-07T01:40:59;25.73;;;14.37;;
8100;SDS011;4093;53.470;9.832;2022-12-07T01:43:29;23.10;;;14.47;;
8100;SDS011;4093;53.470;9.832;2022-12-07T01:45:58;24.17;;;12.70;;
8100;SDS011;4093;53.470;9.832;2022-12-07T01:48:27;22.13;;;12.70;;
8100;SDS011;4093;53.470;9.832;2022-12-07T01:51:00;25.70;;;13.97;;
8100;SDS011;4093;53.470;9.832;2022-12-07T01:53:31;20.57;;;13.60;;
8100;SDS011;4093;53.470;9.832;2022-12-07T01:56:08;27.63;;;14.13;;
8100;SDS011;4093;53.470;9.832;2022-12-07T01:58:42;21.03;;;13.10;;
8100;SDS011;4093;53.470;9.832;2022-12-07T02:01:10;20.40;;;13.50;;
8100;SDS011;4093;53.470;9.832;2022-12-07T02:03:39;19.63;;;12.47;;
8100;SDS011;4093;53.470;9.832;2022-12-07T02:06:10;19.50;;;12.23;;
8100;SDS011;4093;53.470;9.832;2022-12-07T02:08:42;23.13;;;13.73;;
8100;SDS011;4093;53.470;9.832;2022-12-07T02:11:10;25.00;;;12.47;;
8100;SDS011;4093;53.470;9.832;2022-12-07T02:13:39;25.80;;;13.97;;
8100;SDS011;4093;53.470;9.832;2022-12-07T02:16:10;21.57;;;12.40;;
8100;SDS011;4093;53.470;9.832;2022-12-07T02:18:52;19.03;;;11.23;;
8100;SDS011;4093;53.470;9.832;2022-12-07T02:21:32;20.40;;;11.43;;
8100;SDS011;4093;53.470;9.832;2022-12-07T02:24:15;18.60;;;11.03;;
8100;SDS011;4093;53.470;9.832;2022-12-07T02:27:10;16.73;;;10.47;;
8100;SDS011;4093;53.470;9.832;2022-12-07T02:29:58;17.87;;;9.73;;
8100;SDS011;4093;53.470;9.832;2022-12-07T02:32:31;16.83;;;9.63;;
8100;SDS011;4093;53.470;9.832;2022-12-07T02:35:09;14.57;;;8.57;;
8100;SDS011;4093;53.470;9.832;2022-12-07T02:37:44;12.57;;;8.10;;
8100;SDS011;4093;53.470;9.832;2022-12-07T02:40:20;13.50;;;8.03;;
8100;SDS011;4093;53.470;9.832;2022-12-07T02:42:53;17.30;;;7.50;;
8100;SDS011;4093;53.470;9.832;2022-12-07T02:45:27;13.03;;;7.50;;
8100;SDS011;4093;53.470;9.832;2022-12-07T02:47:58;12.63;;;6.57;;
8100;SDS011;4093;53.470;9.832;2022-12-07T02:50:27;12.37;;;6.90;;
8100;SDS011;4093;53.470;9.832;2022-12-07T02:52:55;11.13;;;6.37;;
8100;SDS011;4093;53.470;9.832;2022-12-07T02:55:26;12.07;;;6.87;;
8100;SDS011;4093;53.470;9.832;2022-12-07T02:58:08;14.40;;;6.03;;
8100;SDS011;4093;53.470;9.832;2022-12-07T03:00:51;14.63;;;6.17;;
8100;SDS011;4093;53.470;9.832;2022-12-07T03:03:26;9.80;;;5.77;;
8100;SDS011;4093;53.470;9.832;2022-12-07T03:05:59;9.47;;;5.97;;
8100;SDS011;4093;53.470;9.832;2022-12-07T03:08:39;9.50;;;5.20;;
8100;SDS011;4093;53.470;9.832;2022-12-07T03:11:16;11.87;;;5.70;;
8100;SDS011;4093;53.470;9.832;2022-12-07T03:13:53;10.97;;;5.37;;
8100;SDS011;4093;53.470;9.832;2022-12-07T03:16:29;8.03;;;4.67;;
8100;SDS011;4093;53.470;9.832;2022-12-07T03:19:02;7.80;;;4.70;;
8100;SDS011;4093;53.470;9.832;2022-12-07T03:21:35;8.07;;;4.63;;
8100;SDS011;4093;53.470;9.832;2022-12-07T03:24:08;9.37;;;4.50;;
8100;SDS011;4093;53.470;9.832;2022-12-07T03:26:44;8.63;;;5.37;;
8100;SDS011;4093;53.470;9.832;2022-12-07T03:29:17;9.47;;;4.60;;
8100;SDS011;4093;53.470;9.832;2022-12-07T03:31:50;9.10;;;4.13;;
8100;SDS011;4093;53.470;9.832;2022-12-07T03:34:24;14.23;;;5.00;;
8100;SDS011;4093;53.470;9.832;2022-12-07T03:37:00;8.23;;;5.27;;
8100;SDS011;4093;53.470;9.832;2022-12-07T03:39:33;9.10;;;4.40;;
8100;SDS011;4093;53.470;9.832;2022-12-07T03:42:05;7.37;;;4.07;;
8100;SDS011;4093;53.470;9.832;2022-12-07T03:44:36;9.20;;;3.60;;
8100;SDS011;4093;53.470;9.832;2022-12-07T03:47:07;4.80;;;3.50;;
8100;SDS011;4093;53.470;9.832;2022-12-07T03:49:42;7.13;;;3.47;;
8100;SDS011;4093;53.470;9.832;2022-12-07T03:52:17;4.13;;;3.23;;
8100;SDS011;4093;53.470;9.832;2022-12-07T03:54:52;5.00;;;3.07;;
8100;SDS011;4093;53.470;9.832;2022-12-07T03:57:25;5.90;;;3.57;;
8100;SDS011;4093;53.470;9.832;2022-12-07T03:59:55;6.60;;;3.27;;
8100;SDS011;4093;53.470;9.832;2022-12-07T04:02:26;4.37;;;2.70;;
8100;SDS011;4093;53.470;9.832;2022-12-07T04:04:55;5.97;;;3.27;;
8100;SDS011;4093;53.470;9.832;2022-12-07T04:07:24;4.37;;;3.30;;
8100;SDS011;4093;53.470;9.832;2022-12-07T04:09:52;9.60;;;2.90;;
8100;SDS011;4093;53.470;9.832;2022-12-07T04:12:21;4.70;;;3.03;;
8100;SDS011;4093;53.470;9.832;2022-12-07T04:14:48;7.80;;;3.87;;
8100;SDS011;4093;53.470;9.832;2022-12-07T04:17:16;6.73;;;2.70;;
8100;SDS011;4093;53.470;9.832;2022-12-07T04:19:45;6.93;;;3.23;;
8100;SDS011;4093;53.470;9.832;2022-12-07T04:22:13;4.27;;;2.97;;
8100;SDS011;4093;53.470;9.832;2022-12-07T04:24:41;6.97;;;2.87;;
8100;SDS011;4093;53.470;9.832;2022-12-07T04:27:09;4.60;;;2.70;;
8100;SDS011;4093;53.470;9.832;2022-12-07T04:29:37;8.10;;;3.10;;
8100;SDS011;4093;53.470;9.832;2022-12-07T04:32:05;3.70;;;2.80;;
8100;SDS011;4093;53.470;9.832;2022-12-07T04:34:33;5.03;;;3.07;;
8100;SDS011;4093;53.470;9.832;2022-12-07T04:37:02;6.53;;;2.90;;
8100;SDS011;4093;53.470;9.832;2022-12-07T04:39:30;5.63;;;3.20;;
8100;SDS011;4093;53.470;9.832;2022-12-07T04:41:59;6.40;;;3.23;;
8100;SDS011;4093;53.470;9.832;2022-12-07T04:44:28;8.13;;;3.23;;
8100;SDS011;4093;53.470;9.832;2022-12-07T04:46:56;7.37;;;3.33;;
8100;SDS011;4093;53.470;9.832;2022-12-07T04:49:26;5.77;;;3.00;;
8100;SDS011;4093;53.470;9.832;2022-12-07T04:51:54;5.57;;;3.27;;
8100;SDS011;4093;53.470;9.832;2022-12-07T04:54:23;3.67;;;3.07;;
8100;SDS011;4093;53.470;9.832;2022-12-07T04:56:51;3.60;;;2.73;;
8100;SDS011;4093;53.470;9.832;2022-12-07T04:59:19;5.00;;;3.10;;
8100;SDS011;4093;53.470;9.832;2022-12-07T05:01:47;6.10;;;2.93;;
8100;SDS011;4093;53.470;9.832;2022-12-07T05:04:15;4.30;;;2.80;;
8100;SDS011;4093;53.470;9.832;2022-12-07T05:06:44;7.73;;;2.80;;
8100;SDS011;4093;53.470;9.832;2022-12-07T05:09:11;5.23;;;3.40;;
8100;SDS011;4093;53.470;9.832;2022-12-07T05:11:41;5.27;;;3.20;;
8100;SDS011;4093;53.470;9.832;2022-12-07T05:14:10;8.30;;;3.30;;
8100;SDS011;4093;53.470;9.832;2022-12-07T05:16:40;4.83;;;3.00;;
8100;SDS011;4093;53.470;9.832;2022-12-07T05:19:09;4.83;;;2.90;;
8100;SDS011;4093;53.470;9.832;2022-12-07T05:21:37;4.23;;;2.93;;
8100;SDS011;4093;53.470;9.832;2022-12-07T05:24:06;4.23;;;2.70;;
8100;SDS011;4093;53.470;9.832;2022-12-07T05:26:34;4.83;;;2.97;;
8100;SDS011;4093;53.470;9.832;2022-12-07T05:29:04;4.70;;;2.93;;
8100;SDS011;4093;53.470;9.832;2022-12-07T05:31:32;3.27;;;2.70;;
8100;SDS011;4093;53.470;9.832;2022-12-07T05:34:00;5.30;;;3.07;;
8100;SDS011;4093;53.470;9.832;2022-12-07T05:36:29;5.00;;;3.27;;
8100;SDS011;4093;53.470;9.832;2022-12-07T05:38:58;4.90;;;3.20;;
8100;SDS011;4093;53.470;9.832;2022-12-07T05:41:26;5.87;;;2.80;;
8100;SDS011;4093;53.470;9.832;2022-12-07T05:44:24;8.20;;;3.13;;
8100;SDS011;4093;53.470;9.832;2022-12-07T05:46:52;3.93;;;2.93;;
8100;SDS011;4093;53.470;9.832;2022-12-07T05:49:20;4.93;;;2.70;;
8100;SDS011;4093;53.470;9.832;2022-12-07T05:51:47;5.50;;;3.23;;
8100;SDS011;4093;53.470;9.832;2022-12-07T05:54:15;3.33;;;2.60;;
8100;SDS011;4093;53.470;9.832;2022-12-07T05:56:43;5.80;;;2.57;;
8100;SDS011;4093;53.470;9.832;2022-12-07T05:59:11;4.80;;;2.50;;
8100;SDS011;4093;53.470;9.832;2022-12-07T06:01:52;8.70;;;3.10;;
8100;SDS011;4093;53.470;9.832;2022-12-07T06:04:22;3.37;;;2.70;;
8100;SDS011;4093;53.470;9.832;2022-12-07T06:06:51;3.57;;;2.67;;
8100;SDS011;4093;53.470;9.832;2022-12-07T06:09:20;6.93;;;2.87;;
8100;SDS011;4093;53.470;9.832;2022-12-07T06:11:48;4.30;;;2.73;;
8100;SDS011;4093;53.470;9.832;2022-12-07T06:14:34;3.57;;;2.60;;
8100;SDS011;4093;53.470;9.832;2022-12-07T06:17:03;8.37;;;2.90;;
8100;SDS011;4093;53.470;9.832;2022-12-07T06:19:32;7.23;;;2.70;;
8100;SDS011;4093;53.470;9.832;2022-12-07T06:22:01;5.07;;;2.80;;
8100;SDS011;4093;53.470;9.832;2022-12-07T06:24:30;4.83;;;2.97;;
8100;SDS011;4093;53.470;9.832;2022-12-07T06:26:59;6.57;;;2.70;;
8100;SDS011;4093;53.470;9.832;2022-12-07T06:29:27;4.50;;;2.70;;
8100;SDS011;4093;53.470;9.832;2022-12-07T06:31:55;5.53;;;3.00;;
8100;SDS011;4093;53.470;9.832;2022-12-07T06:34:25;7.80;;;3.20;;
8100;SDS011;4093;53.470;9.832;2022-12-07T06:36:53;4.27;;;2.50;;
8100;SDS011;4093;53.470;9.832;2022-12-07T06:39:22;5.27;;;2.77;;
8100;SDS011;4093;53.470;9.832;2022-12-07T06:41:52;4.17;;;2.60;;
8100;SDS011;4093;53.470;9.832;2022-12-07T06:44:20;5.73;;;2.80;;
8100;SDS011;4093;53.470;9.832;2022-12-07T06:46:49;4.83;;;3.00;;
8100;SDS011;4093;53.470;9.832;2022-12-07T06:49:21;5.07;;;3.50;;
8100;SDS011;4093;53.470;9.832;2022-12-07T06:51:50;6.43;;;4.17;;
8100;SDS011;4093;53.470;9.832;2022-12-07T06:54:18;8.27;;;3.40;;
8100;SDS011;4093;53.470;9.832;2022-12-07T06:56:46;6.13;;;2.70;;
8100;SDS011;4093;53.470;9.832;2022-12-07T06:59:14;3.43;;;3.10;;
8100;SDS011;4093;53.470;9.832;2022-12-07T07:01:41;3.23;;;2.83;;
8100;SDS011;4093;53.470;9.832;2022-12-07T07:04:09;3.47;;;2.70;;
8100;SDS011;4093;53.470;9.832;2022-12-07T07:06:37;3.87;;;2.87;;
8100;SDS011;4093;53.470;9.832;2022-12-07T07:09:06;4.40;;;2.87;;
8100;SDS011;4093;53.470;9.832;2022-12-07T07:11:35;4.93;;;2.47;;
8100;SDS011;4093;53.470;9.832;2022-12-07T07:14:03;5.07;;;2.30;;
8100;SDS011;4093;53.470;9.832;2022-12-07T07:16:31;3.93;;;2.63;;
8100;SDS011;4093;53.470;9.832;2022-12-07T07:18:59;4.97;;;2.80;;
8100;SDS011;4093;53.470;9.832;2022-12-07T07:21:27;3.33;;;3.00;;
8100;SDS011;4093;53.470;9.832;2022-12-07T07:23:55;6.10;;;3.00;;
8100;SDS011;4093;53.470;9.832;2022-12-07T07:26:25;7.00;;;3.30;;
8100;SDS011;4093;53.470;9.832;2022-12-07T07:28:52;4.90;;;2.57;;
8100;SDS011;4093;53.470;9.832;2022-12-07T07:31:20;5.30;;;2.70;;
8100;SDS011;4093;53.470;9.832;2022-12-07T07:33:48;3.40;;;2.33;;
8100;SDS011;4093;53.470;9.832;2022-12-07T07:36:16;7.33;;;2.90;;
8100;SDS011;4093;53.470;9.832;2022-12-07T07:38:44;6.83;;;3.10;;
8100;SDS011;4093;53.470;9.832;2022-12-07T07:41:12;5.00;;;2.77;;
8100;SDS011;4093;53.470;9.832;2022-12-07T07:43:41;4.07;;;2.63;;
8100;SDS011;4093;53.470;9.832;2022-12-07T07:46:09;5.20;;;2.50;;
8100;SDS011;4093;53.470;9.832;2022-12-07T07:48:37;5.17;;;2.67;;
8100;SDS011;4093;53.470;9.832;2022-12-07T07:51:05;6.17;;;2.70;;
8100;SDS011;4093;53.470;9.832;2022-12-07T07:53:34;3.57;;;2.90;;
8100;SDS011;4093;53.470;9.832;2022-12-07T07:56:02;5.40;;;2.43;;
8100;SDS011;4093;53.470;9.832;2022-12-07T07:58:31;4.13;;;2.70;;
8100;SDS011;4093;53.470;9.832;2022-12-07T08:01:04;6.23;;;2.40;;
8100;SDS011;4093;53.470;9.832;2022-12-07T08:03:33;4.73;;;2.50;;
8100;SDS011;4093;53.470;9.832;2022-12-07T08:06:01;4.20;;;2.50;;
8100;SDS011;4093;53.470;9.832;2022-12-07T08:08:29;4.53;;;2.37;;
8100;SDS011;4093;53.470;9.832;2022-12-07T08:10:57;5.10;;;2.63;;
8100;SDS011;4093;53.470;9.832;2022-12-07T08:13:26;5.13;;;2.40;;
8100;SDS011;4093;53.470;9.832;2022-12-07T08:15:56;5.90;;;2.77;;
8100;SDS011;4093;53.470;9.832;2022-12-07T08:18:26;6.17;;;3.10;;
8100;SDS011;4093;53.470;9.832;2022-12-07T08:20:58;7.37;;;2.57;;
8100;SDS011;4093;53.470;9.832;2022-12-07T08:23:26;7.80;;;2.60;;
8100;SDS011;4093;53.470;9.832;2022-12-07T08:26:05;4.27;;;2.60;;
8100;SDS011;4093;53.470;9.832;2022-12-07T08:28:34;5.83;;;2.80;;
8100;SDS011;4093;53.470;9.832;2022-12-07T08:31:03;6.30;;;2.80;;
8100;SDS011;4093;53.470;9.832;2022-12-07T08:33:33;6.77;;;2.60;;
8100;SDS011;4093;53.470;9.832;2022-12-07T08:36:02;4.63;;;2.97;;
8100;SDS011;4093;53.470;9.832;2022-12-07T08:38:31;3.83;;;2.90;;
8100;SDS011;4093;53.470;9.832;2022-12-07T08:40:59;4.90;;;2.57;;
8100;SDS011;4093;53.470;9.832;2022-12-07T08:43:27;7.53;;;2.80;;
8100;SDS011;4093;53.470;9.832;2022-12-07T08:45:58;4.70;;;3.10;;
8100;SDS011;4093;53.470;9.832;2022-12-07T08:48:35;6.10;;;2.60;;
8100;SDS011;4093;53.470;9.832;2022-12-07T08:51:06;8.33;;;2.80;;
8100;SDS011;4093;53.470;9.832;2022-12-07T08:53:34;5.00;;;2.53;;
8100;SDS011;4093;53.470;9.832;2022-12-07T08:56:04;9.93;;;2.90;;
8100;SDS011;4093;53.470;9.832;2022-12-07T08:58:33;4.77;;;2.90;;
8100;SDS011;4093;53.470;9.832;2022-12-07T09:01:03;6.27;;;3.40;;
8100;SDS011;4093;53.470;9.832;2022-12-07T09:03:31;5.70;;;2.87;;
8100;SDS011;4093;53.470;9.832;2022-12-07T09:06:00;10.87;;;2.87;;
8100;SDS011;4093;53.470;9.832;2022-12-07T09:08:30;4.43;;;2.90;;
8100;SDS011;4093;53.470;9.832;2022-12-07T09:11:02;5.30;;;2.77;;
8100;SDS011;4093;53.470;9.832;2022-12-07T09:13:30;11.93;;;6.07;;
8100;SDS011;4093;53.470;9.832;2022-12-07T09:15:57;6.60;;;3.77;;
8100;SDS011;4093;53.470;9.832;2022-12-07T09:18:25;5.07;;;3.10;;
8100;SDS011;4093;53.470;9.832;2022-12-07T09:20:54;5.97;;;3.10;;
8100;SDS011;4093;53.470;9.832;2022-12-07T09:23:24;5.97;;;2.70;;
8100;SDS011;4093;53.470;9.832;2022-12-07T09:25:52;6.77;;;2.97;;
8100;SDS011;4093;53.470;9.832;2022-12-07T09:28:19;5.03;;;2.43;;
8100;SDS011;4093;53.470;9.832;2022-12-07T09:30:47;7.40;;;2.60;;
8100;SDS011;4093;53.470;9.832;2022-12-07T09:33:36;3.20;;;2.10;;
8100;SDS011;4093;53.470;9.832;2022-12-07T09:36:04;6.40;;;2.60;;
8100;SDS011;4093;53.470;9.832;2022-12-07T09:38:33;9.23;;;2.67;;
8100;SDS011;4093;53.470;9.832;2022-12-07T09:41:03;5.77;;;2.27;;
8100;SDS011;4093;53.470;9.832;2022-12-07T09:43:33;3.63;;;2.20;;
8100;SDS011;4093;53.470;9.832;2022-12-07T09:46:03;5.37;;;2.40;;
8100;SDS011;4093;53.470;9.832;2022-12-07T09:48:32;5.43;;;2.00;;
8100;SDS011;4093;53.470;9.832;2022-12-07T09:51:10;2.93;;;2.00;;
8100;SDS011;4093;53.470;9.832;2022-12-07T09:53:49;5.03;;;1.67;;
8100;SDS011;4093;53.470;9.832;2022-12-07T09:56:18;4.03;;;1.80;;
8100;SDS011;4093;53.470;9.832;2022-12-07T09:58:47;3.83;;;1.80;;
8100;SDS011;4093;53.470;9.832;2022-12-07T10:01:17;3.00;;;1.50;;
8100;SDS011;4093;53.470;9.832;2022-12-07T10:03:48;5.50;;;1.70;;
8100;SDS011;4093;53.470;9.832;2022-12-07T10:06:18;4.20;;;1.90;;
8100;SDS011;4093;53.470;9.832;2022-12-07T10:08:46;1.93;;;1.73;;
8100;SDS011;4093;53.470;9.832;2022-12-07T10:11:16;4.57;;;2.10;;
8100;SDS011;4093;53.470;9.832;2022-12-07T10:13:44;4.57;;;1.70;;
8100;SDS011;4093;53.470;9.832;2022-12-07T10:19:18;2.93;;;1.90;;
8100;SDS011;4093;53.470;9.832;2022-12-07T10:22:05;2.10;;;1.90;;
8100;SDS011;4093;53.470;9.832;2022-12-07T10:24:37;2.50;;;1.63;;
8100;SDS011;4093;53.470;9.832;2022-12-07T10:27:17;5.73;;;2.40;;
8100;SDS011;4093;53.470;9.832;2022-12-07T10:29:47;4.40;;;1.90;;
8100;SDS011;4093;53.470;9.832;2022-12-07T10:32:28;2.47;;;2.20;;
8100;SDS011;4093;53.470;9.832;2022-12-07T10:35:18;2.50;;;2.00;;
8100;SDS011;4093;53.470;9.832;2022-12-07T10:37:51;3.13;;;1.90;;
8100;SDS011;4093;53.470;9.832;2022-12-07T10:40:27;7.63;;;2.10;;
8100;SDS011;4093;53.470;9.832;2022-12-07T10:43:17;7.87;;;2.07;;
8100;SDS011;4093;53.470;9.832;2022-12-07T10:45:57;6.67;;;2.23;;
8100;SDS011;4093;53.470;9.832;2022-12-07T10:48:50;2.83;;;2.00;;
8100;SDS011;4093;53.470;9.832;2022-12-07T10:51:27;6.33;;;1.90;;
8100;SDS011;4093;53.470;9.832;2022-12-07T10:54:09;6.47;;;2.47;;
8100;SDS011;4093;53.470;9.832;2022-12-07T10:59:49;7.20;;;2.23;;
8100;SDS011;4093;53.470;9.832;2022-12-07T11:02:25;5.70;;;3.03;;
8100;SDS011;4093;53.470;9.832;2022-12-07T11:05:18;5.13;;;1.83;;
8100;SDS011;4093;53.470;9.832;2022-12-07T11:07:57;5.27;;;2.13;;
8100;SDS011;4093;53.470;9.832;2022-12-07T11:10:33;5.40;;;2.17;;
8100;SDS011;4093;53.470;9.832;2022-12-07T11:13:15;2.93;;;2.00;;
8100;SDS011;4093;53.470;9.832;2022-12-07T11:15:58;2.40;;;1.70;;
8100;SDS011;4093;53.470;9.832;2022-12-07T11:18:41;3.97;;;2.10;;
8100;SDS011;4093;53.470;9.832;2022-12-07T11:21:20;8.93;;;2.10;;
8100;SDS011;4093;53.470;9.832;2022-12-07T11:23:55;3.67;;;1.93;;
8100;SDS011;4093;53.470;9.832;2022-12-07T11:26:31;8.53;;;2.23;;
8100;SDS011;4093;53.470;9.832;2022-12-07T11:29:14;3.07;;;1.90;;
8100;SDS011;4093;53.470;9.832;2022-12-07T11:31:58;4.70;;;2.30;;
8100;SDS011;4093;53.470;9.832;2022-12-07T11:34:39;4.40;;;2.50;;
8100;SDS011;4093;53.470;9.832;2022-12-07T11:37:15;4.47;;;2.40;;
8100;SDS011;4093;53.470;9.832;2022-12-07T11:39:47;7.20;;;2.20;;
8100;SDS011;4093;53.470;9.832;2022-12-07T11:42:20;4.90;;;2.40;;
8100;SDS011;4093;53.470;9.832;2022-12-07T11:44:50;5.27;;;2.13;;
8100;SDS011;4093;53.470;9.832;2022-12-07T11:47:25;9.27;;;2.10;;
8100;SDS011;4093;53.470;9.832;2022-12-07T11:50:01;3.87;;;2.20;;
8100;SDS011;4093;53.470;9.832;2022-12-07T11:52:43;10.30;;;3.23;;
8100;SDS011;4093;53.470;9.832;2022-12-07T11:55:18;10.80;;;2.67;;
8100;SDS011;4093;53.470;9.832;2022-12-07T11:57:51;7.30;;;2.20;;
8100;SDS011;4093;53.470;9.832;2022-12-07T12:00:25;5.33;;;2.20;;
8100;SDS011;4093;53.470;9.832;2022-12-07T12:02:56;5.07;;;2.37;;
8100;SDS011;4093;53.470;9.832;2022-12-07T12:05:29;5.63;;;2.27;;
8100;SDS011;4093;53.470;9.832;2022-12-07T12:07:59;7.20;;;2.80;;
8100;SDS011;4093;53.470;9.832;2022-12-07T12:11:00;4.83;;;1.97;;
8100;SDS011;4093;53.470;9.832;2022-12-07T12:16:58;8.33;;;2.33;;
8100;SDS011;4093;53.470;9.832;2022-12-07T12:22:29;6.97;;;2.50;;
8100;SDS011;4093;53.470;9.832;2022-12-07T12:25:04;8.93;;;2.40;;
8100;SDS011;4093;53.470;9.832;2022-12-07T12:27:34;6.10;;;2.63;;
8100;SDS011;4093;53.470;9.832;2022-12-07T12:30:05;8.43;;;2.70;;
8100;SDS011;4093;53.470;9.832;2022-12-07T12:32:36;6.90;;;2.10;;
8100;SDS011;4093;53.470;9.832;2022-12-07T12:35:27;7.67;;;2.70;;
8100;SDS011;4093;53.470;9.832;2022-12-07T12:41:04;3.90;;;2.33;;
8100;SDS011;4093;53.470;9.832;2022-12-07T12:43:46;13.07;;;2.47;;
8100;SDS011;4093;53.470;9.832;2022-12-07T12:46:38;5.23;;;2.17;;
8100;SDS011;4093;53.470;9.832;2022-12-07T12:55:20;5.40;;;2.63;;
8100;SDS011;4093;53.470;9.832;2022-12-07T13:04:14;10.77;;;2.23;;
8100;SDS011;4093;53.470;9.832;2022-12-07T13:06:45;4.63;;;2.07;;
8100;SDS011;4093;53.470;9.832;2022-12-07T13:09:17;6.73;;;2.00;;
8100;SDS011;4093;53.470;9.832;2022-12-07T13:11:54;5.23;;;2.13;;
8100;SDS011;4093;53.470;9.832;2022-12-07T13:20:44;9.13;;;2.53;;
8100;SDS011;4093;53.470;9.832;2022-12-07T13:23:18;7.20;;;2.20;;
8100;SDS011;4093;53.470;9.832;2022-12-07T13:25:53;5.70;;;1.80;;
8100;SDS011;4093;53.470;9.832;2022-12-07T13:28:31;8.47;;;2.30;;
8100;SDS011;4093;53.470;9.832;2022-12-07T13:31:13;6.43;;;1.97;;
8100;SDS011;4093;53.470;9.832;2022-12-07T13:33:46;7.60;;;2.10;;
8100;SDS011;4093;53.470;9.832;2022-12-07T13:36:17;6.50;;;2.30;;
8100;SDS011;4093;53.470;9.832;2022-12-07T13:38:49;6.53;;;2.40;;
8100;SDS011;4093;53.470;9.832;2022-12-07T13:41:20;2.80;;;1.80;;
8100;SDS011;4093;53.470;9.832;2022-12-07T13:43:52;5.70;;;1.90;;
8100;SDS011;4093;53.470;9.832;2022-12-07T13:46:29;7.73;;;2.37;;
8100;SDS011;4093;53.470;9.832;2022-12-07T13:49:03;4.27;;;2.53;;
8100;SDS011;4093;53.470;9.832;2022-12-07T13:51:44;6.07;;;2.17;;
8100;SDS011;4093;53.470;9.832;2022-12-07T13:54:12;6.17;;;2.53;;
8100;SDS011;4093;53.470;9.832;2022-12-07T13:56:41;8.13;;;2.50;;
8100;SDS011;4093;53.470;9.832;2022-12-07T13:59:13;6.10;;;2.10;;
8100;SDS011;4093;53.470;9.832;2022-12-07T14:01:44;4.93;;;2.30;;
8100;SDS011;4093;53.470;9.832;2022-12-07T14:07:01;6.13;;;2.03;;
8100;SDS011;4093;53.470;9.832;2022-12-07T14:09:53;5.07;;;1.90;;
8100;SDS011;4093;53.470;9.832;2022-12-07T14:12:26;5.87;;;2.30;;
8100;SDS011;4093;53.470;9.832;2022-12-07T14:14:57;6.57;;;2.13;;
8100;SDS011;4093;53.470;9.832;2022-12-07T14:17:27;7.67;;;2.20;;
8100;SDS011;4093;53.470;9.832;2022-12-07T14:19:55;6.53;;;2.13;;
8100;SDS011;4093;53.470;9.832;2022-12-07T14:22:29;6.20;;;2.00;;
8100;SDS011;4093;53.470;9.832;2022-12-07T14:25:19;5.83;;;2.03;;
8100;SDS011;4093;53.470;9.832;2022-12-07T14:27:52;5.07;;;2.37;;
8100;SDS011;4093;53.470;9.832;2022-12-07T14:30:25;4.40;;;2.00;;
8100;SDS011;4093;53.470;9.832;2022-12-07T14:32:56;10.30;;;2.90;;
8100;SDS011;4093;53.470;9.832;2022-12-07T14:35:27;3.23;;;2.07;;
8100;SDS011;4093;53.470;9.832;2022-12-07T14:37:55;3.97;;;1.90;;
8100;SDS011;4093;53.470;9.832;2022-12-07T14:40:23;10.70;;;2.83;;
8100;SDS011;4093;53.470;9.832;2022-12-07T14:42:54;5.00;;;2.00;;
8100;SDS011;4093;53.470;9.832;2022-12-07T14:45:26;3.50;;;2.30;;
8100;SDS011;4093;53.470;9.832;2022-12-07T14:47:53;5.93;;;3.07;;
8100;SDS011;4093;53.470;9.832;2022-12-07T14:50:42;4.93;;;2.60;;
8100;SDS011;4093;53.470;9.832;2022-12-07T14:53:33;8.40;;;2.70;;
8100;SDS011;4093;53.470;9.832;2022-12-07T14:56:04;7.83;;;2.50;;
8100;SDS011;4093;53.470;9.832;2022-12-07T14:58:32;8.23;;;2.80;;
8100;SDS011;4093;53.470;9.832;2022-12-07T15:01:01;7.13;;;2.57;;
8100;SDS011;4093;53.470;9.832;2022-12-07T15:03:30;5.50;;;2.37;;
8100;SDS011;4093;53.470;9.832;2022-12-07T15:05:58;4.00;;;2.40;;
8100;SDS011;4093;53.470;9.832;2022-12-07T15:08:25;5.53;;;2.47;;
8100;SDS011;4093;53.470;9.832;2022-12-07T15:10:54;4.93;;;2.80;;
8100;SDS011;4093;53.470;9.832;2022-12-07T15:13:22;8.23;;;2.83;;
8100;SDS011;4093;53.470;9.832;2022-12-07T15:16:11;8.23;;;2.70;;
8100;SDS011;4093;53.470;9.832;2022-12-07T15:18:43;7.07;;;2.90;;
8100;SDS011;4093;53.470;9.832;2022-12-07T15:21:31;8.10;;;2.20;;
8100;SDS011;4093;53.470;9.832;2022-12-07T15:23:59;8.40;;;2.33;;
8100;SDS011;4093;53.470;9.832;2022-12-07T15:26:27;4.33;;;2.00;;
8100;SDS011;4093;53.470;9.832;2022-12-07T15:28:55;5.37;;;2.40;;
8100;SDS011;4093;53.470;9.832;2022-12-07T15:31:24;4.57;;;2.67;;
8100;SDS011;4093;53.470;9.832;2022-12-07T15:34:11;6.83;;;2.80;;
8100;SDS011;4093;53.470;9.832;2022-12-07T15:36:39;4.23;;;2.87;;
8100;SDS011;4093;53.470;9.832;2022-12-07T15:39:08;4.80;;;2.80;;
8100;SDS011;4093;53.470;9.832;2022-12-07T15:41:40;6.60;;;3.23;;
8100;SDS011;4093;53.470;9.832;2022-12-07T15:44:08;8.40;;;3.30;;
8100;SDS011;4093;53.470;9.832;2022-12-07T15:46:58;4.50;;;3.37;;
8100;SDS011;4093;53.470;9.832;2022-12-07T15:49:26;8.97;;;3.73;;
8100;SDS011;4093;53.470;9.832;2022-12-07T15:51:54;6.20;;;3.50;;
8100;SDS011;4093;53.470;9.832;2022-12-07T15:54:22;4.87;;;2.50;;
8100;SDS011;4093;53.470;9.832;2022-12-07T15:56:53;5.57;;;2.50;;
8100;SDS011;4093;53.470;9.832;2022-12-07T15:59:21;4.07;;;2.70;;
8100;SDS011;4093;53.470;9.832;2022-12-07T16:01:49;5.40;;;3.20;;
8100;SDS011;4093;53.470;9.832;2022-12-07T16:04:19;5.97;;;3.37;;
8100;SDS011;4093;53.470;9.832;2022-12-07T16:06:47;6.00;;;2.50;;
8100;SDS011;4093;53.470;9.832;2022-12-07T16:09:16;6.70;;;2.40;;
8100;SDS011;4093;53.470;9.832;2022-12-07T16:11:44;3.70;;;2.00;;
8100;SDS011;4093;53.470;9.832;2022-12-07T16:14:11;3.00;;;2.10;;
8100;SDS011;4093;53.470;9.832;2022-12-07T16:16:39;3.20;;;2.10;;